Date,TemperatureHighF,TemperatureAvgF,TemperatureLowF,DewpointHighF,DewpointAvgF,DewpointLowF,HumidityHigh,HumidityAvg,HumidityLow,PressureMaxIn,PressureMinIn,WindSpeedMaxMPH,WindSpeedAvgMPH,GustSpeedMaxMPH,PrecipitationSumIn
2013-9-1,60,58,57,-100,-100,-100,0,0,100,0.00,40.00,0,-999,0,0.00
2013-9-2,66,59,52,-100,-100,-100,0,0,100,0.00,40.00,0,-999,0,0.00
2013-9-3,65,56,48,-100,-100,-100,0,0,100,0.00,40.00,0,-999,0,0.00
2013-9-4,59,57,55,-100,-100,-100,0,0,100,0.00,40.00,0,-999,0,0.00
2013-9-5,61,57,54,-100,-100,-100,0,0,100,0.00,40.00,0,-999,0,0.00
2013-9-6,63,58,55,-100,-100,-100,0,0,100,0.00,40.00,0,-999,0,0.00
2013-9-7,63,60,57,-100,-100,-100,0,0,100,0.00,40.00,0,-999,0,0.00
2013-9-8,60,55,49,-100,-100,-100,0,0,100,0.00,40.00,0,-999,0,0.00
2013-9-9,58,52,46,-100,-100,-100,0,0,100,0.00,40.00,0,-999,0,0.00
2013-9-10,57,53,49,-100,-100,-100,0,0,100,0.00,40.00,0,-999,0,0.00
2013-9-11,62,58,56,-100,-100,-100,0,0,100,0.00,40.00,0,-999,0,0.00
2013-9-12,62,56,48,-100,-100,-100,0,0,100,0.00,40.00,0,-999,0,0.00
2013-9-13,60,51,44,-100,-100,-100,0,0,100,0.00,40.00,0,-999,0,0.00
2013-9-14,60,52,46,-100,-100,-100,0,0,100,0.00,40.00,0,-999,0,0.00
2013-9-15,60,53,46,-100,-100,-100,0,0,100,0.00,40.00,0,-999,0,0.00
2013-9-16,54,52,49,-100,-100,-100,0,0,100,0.00,40.00,0,-999,0,0.00
2013-9-17,55,50,47,-100,-100,-100,0,0,100,0.00,40.00,0,-999,0,0.00
2013-9-18,52,49,48,-100,-100,-100,0,0,100,0.00,40.00,0,-999,0,0.00
2013-9-19,57,52,48,-100,-100,-100,0,0,100,0.00,40.00,0,-999,0,0.00
2013-9-20,60,55,50,-100,-100,-100,0,0,100,0.00,40.00,0,-999,0,0.00
2013-9-21,52,49,45,-100,-100,-100,0,0,100,0.00,40.00,0,-999,0,0.00
2013-9-22,52,50,46,-100,-100,-100,0,0,100,0.00,40.00,0,-999,0,0.00
2013-9-23,54,48,45,-100,-100,-100,0,0,100,0.00,40.00,0,-999,0,0.00
2013-9-24,57,48,42,-100,-100,-100,0,0,100,0.00,40.00,0,-999,0,0.00
2013-9-25,57,47,37,-100,-100,-100,0,0,100,0.00,40.00,0,-999,0,0.00
2013-9-26,52,49,46,-100,-100,-100,0,0,100,0.00,40.00,0,-999,0,0.00
2013-9-27,47,46,45,-100,-100,-100,0,0,100,0.00,40.00,0,-999,0,0.00
2013-9-28,54,48,42,-100,-100,-100,0,0,100,0.00,40.00,0,-999,0,0.00
2013-9-29,58,47,38,-100,-100,-100,0,0,100,0.00,40.00,0,-999,0,0.00
2013-9-30,54,47,39,-100,-100,-100,0,0,100,0.00,40.00,0,-999,0,0.00